ANZ226E NZAA-NZWR
Flight info
| Callsign | ANZ226E |
|---|---|
| Flight time | 0h 32m |
| Altitude | 17000 |
| Route | ONOD1P PUHOI H379 EPDUN EPDU1B |
| Aircraft | B190/M-SDFGRY/S |
Departure
| Time | 2026-04-23 07:04 |
|---|---|
| Airport | Auckland International Airport (NZAA) |
Arrival
| Time | 2026-04-23 07:36 |
|---|---|
| Airport | Whangarei Airport (NZWR) |
| Time | Latitude | Longitude | Altitude | Speed | Heading |
|---|---|---|---|---|---|
| 2026-04-23 06:44 | -37.00583 | 174.79366 | 28 ft | 0 kts | 251° |
| 2026-04-23 06:45 | -37.00584 | 174.79366 | 28 ft | 0 kts | 251° |
| 2026-04-23 06:56 | -37.00582 | 174.79372 | 28 ft | 1 kts | 252° |
| 2026-04-23 06:56 | -37.00580 | 174.79382 | 28 ft | 1 kts | 253° |
| 2026-04-23 06:56 | -37.00577 | 174.79391 | 28 ft | 1 kts | 254° |
| 2026-04-23 06:56 | -37.00572 | 174.79404 | 28 ft | 4 kts | 225° |
| 2026-04-23 06:57 | -37.00562 | 174.79411 | 28 ft | 1 kts | 201° |
| 2026-04-23 06:57 | -37.00567 | 174.79409 | 28 ft | 1 kts | 200° |
| 2026-04-23 06:57 | -37.00578 | 174.79408 | 28 ft | 2 kts | 161° |
| 2026-04-23 06:57 | -37.00579 | 174.79409 | 28 ft | 0 kts | 161° |
| 2026-04-23 07:00 | -37.00591 | 174.79414 | 28 ft | 2 kts | 160° |
| 2026-04-23 07:00 | -37.00616 | 174.79425 | 28 ft | 5 kts | 160° |
| 2026-04-23 07:00 | -37.00638 | 174.79435 | 28 ft | 4 kts | 160° |
| 2026-04-23 07:00 | -37.00668 | 174.79448 | 28 ft | 6 kts | 160° |
| 2026-04-23 07:01 | -37.00681 | 174.79500 | 28 ft | 6 kts | 71° |
| 2026-04-23 07:01 | -37.00663 | 174.79564 | 28 ft | 9 kts | 71° |
| 2026-04-23 07:01 | -37.00643 | 174.79640 | 28 ft | 10 kts | 71° |
| 2026-04-23 07:01 | -37.00619 | 174.79725 | 28 ft | 11 kts | 70° |
| 2026-04-23 07:02 | -37.00592 | 174.79817 | 28 ft | 12 kts | 70° |
| 2026-04-23 07:02 | -37.00564 | 174.79914 | 28 ft | 12 kts | 71° |
| 2026-04-23 07:02 | -37.00587 | 174.79961 | 28 ft | 7 kts | 152° |
| 2026-04-23 07:02 | -37.00634 | 174.79988 | 28 ft | 9 kts | 143° |
| 2026-04-23 07:03 | -37.00656 | 174.80014 | 28 ft | 5 kts | 134° |
| 2026-04-23 07:03 | -37.00685 | 174.80052 | 28 ft | 7 kts | 133° |
| 2026-04-23 07:03 | -37.00729 | 174.80110 | 28 ft | 11 kts | 133° |
| 2026-04-23 07:03 | -37.00785 | 174.80141 | 28 ft | 9 kts | 250° |
| 2026-04-23 07:04 | -37.00882 | 174.79786 | 28 ft | 90 kts | 250° |
| 2026-04-23 07:04 | -37.01159 | 174.78797 | 230 ft | 136 kts | 247° |
| 2026-04-23 07:04 | -37.01444 | 174.77622 | 828 ft | 150 kts | 256° |
| 2026-04-23 07:04 | -37.01227 | 174.76289 | 1307 ft | 169 kts | 300° |
| 2026-04-23 07:05 | -37.00453 | 174.75119 | 1750 ft | 182 kts | 314° |
| 2026-04-23 07:05 | -36.99543 | 174.73988 | 2208 ft | 187 kts | 314° |
| 2026-04-23 07:05 | -36.98604 | 174.72814 | 2668 ft | 194 kts | 313° |
| 2026-04-23 07:05 | -36.97647 | 174.71578 | 3127 ft | 200 kts | 313° |
| 2026-04-23 07:06 | -36.96681 | 174.70294 | 3584 ft | 205 kts | 311° |
| 2026-04-23 07:06 | -36.95712 | 174.68974 | 4038 ft | 208 kts | 310° |
| 2026-04-23 07:06 | -36.94728 | 174.67607 | 4304 ft | 219 kts | 309° |
| 2026-04-23 07:06 | -36.93687 | 174.66144 | 4308 ft | 230 kts | 309° |
| 2026-04-23 07:07 | -36.92635 | 174.64648 | 4309 ft | 230 kts | 308° |
| 2026-04-23 07:07 | -36.91598 | 174.63154 | 4298 ft | 231 kts | 309° |
| 2026-04-23 07:07 | -36.90539 | 174.61674 | 4530 ft | 220 kts | 309° |
| 2026-04-23 07:07 | -36.89553 | 174.60254 | 4775 ft | 213 kts | 307° |
| 2026-04-23 07:08 | -36.88461 | 174.59052 | 5114 ft | 216 kts | 330° |
| 2026-04-23 07:08 | -36.87025 | 174.58490 | 5574 ft | 217 kts | 345° |
| 2026-04-23 07:08 | -36.85531 | 174.58227 | 6026 ft | 216 kts | 349° |
| 2026-04-23 07:08 | -36.84029 | 174.58058 | 6482 ft | 218 kts | 350° |
| 2026-04-23 07:09 | -36.82515 | 174.57912 | 6935 ft | 219 kts | 350° |
| 2026-04-23 07:09 | -36.80990 | 174.57770 | 7387 ft | 220 kts | 350° |
| 2026-04-23 07:09 | -36.79467 | 174.57627 | 7837 ft | 220 kts | 350° |
| 2026-04-23 07:09 | -36.77935 | 174.57479 | 8288 ft | 221 kts | 350° |
| 2026-04-23 07:10 | -36.76401 | 174.57329 | 8739 ft | 221 kts | 350° |
| 2026-04-23 07:10 | -36.74863 | 174.57176 | 9190 ft | 222 kts | 350° |
| 2026-04-23 07:10 | -36.73322 | 174.57020 | 9640 ft | 222 kts | 350° |
| 2026-04-23 07:10 | -36.71778 | 174.56863 | 10091 ft | 223 kts | 350° |
| 2026-04-23 07:11 | -36.70230 | 174.56704 | 10542 ft | 223 kts | 349° |
| 2026-04-23 07:11 | -36.68681 | 174.56543 | 10992 ft | 224 kts | 349° |
| 2026-04-23 07:11 | -36.67130 | 174.56381 | 11442 ft | 224 kts | 349° |
| 2026-04-23 07:12 | -36.64024 | 174.56052 | 12343 ft | 224 kts | 349° |
| 2026-04-23 07:12 | -36.62486 | 174.55885 | 12733 ft | 227 kts | 349° |
| 2026-04-23 07:12 | -36.60863 | 174.55707 | 12999 ft | 235 kts | 349° |
| 2026-04-23 07:12 | -36.59237 | 174.55533 | 13250 ft | 240 kts | 350° |
| 2026-04-23 07:13 | -36.57553 | 174.55356 | 13503 ft | 245 kts | 350° |
| 2026-04-23 07:13 | -36.55846 | 174.55170 | 13756 ft | 248 kts | 349° |
| 2026-04-23 07:13 | -36.54122 | 174.54971 | 14007 ft | 250 kts | 349° |
| 2026-04-23 07:13 | -36.52388 | 174.54752 | 14324 ft | 249 kts | 348° |
| 2026-04-23 07:14 | -36.50678 | 174.54502 | 14696 ft | 246 kts | 348° |
| 2026-04-23 07:14 | -36.48983 | 174.54246 | 15070 ft | 244 kts | 347° |
| 2026-04-23 07:14 | -36.47310 | 174.53954 | 15443 ft | 242 kts | 346° |
| 2026-04-23 07:14 | -36.45654 | 174.53608 | 15818 ft | 240 kts | 344° |
| 2026-04-23 07:15 | -36.44019 | 174.53212 | 16192 ft | 239 kts | 343° |
| 2026-04-23 07:15 | -36.42401 | 174.52781 | 16566 ft | 237 kts | 342° |
| 2026-04-23 07:15 | -36.40794 | 174.52323 | 16941 ft | 236 kts | 341° |
| 2026-04-23 07:15 | -36.39175 | 174.51841 | 17126 ft | 244 kts | 341° |
| 2026-04-23 07:16 | -36.37498 | 174.51334 | 17226 ft | 253 kts | 341° |
| 2026-04-23 07:16 | -36.35758 | 174.50809 | 17257 ft | 262 kts | 341° |
| 2026-04-23 07:16 | -36.33962 | 174.50268 | 17261 ft | 269 kts | 341° |
| 2026-04-23 07:16 | -36.32144 | 174.49715 | 17261 ft | 274 kts | 341° |
| 2026-04-23 07:17 | -36.30277 | 174.49132 | 17260 ft | 278 kts | 341° |
| 2026-04-23 07:17 | -36.28399 | 174.48517 | 17260 ft | 281 kts | 340° |
| 2026-04-23 07:17 | -36.26506 | 174.47875 | 17259 ft | 283 kts | 341° |
| 2026-04-23 07:17 | -36.24569 | 174.47351 | 17259 ft | 286 kts | 344° |
| 2026-04-23 07:18 | -36.22609 | 174.46886 | 17259 ft | 287 kts | 345° |
| 2026-04-23 07:18 | -36.20640 | 174.46421 | 17259 ft | 288 kts | 344° |
| 2026-04-23 07:18 | -36.18677 | 174.45936 | 17259 ft | 288 kts | 343° |
| 2026-04-23 07:18 | -36.16714 | 174.45425 | 17259 ft | 288 kts | 343° |
| 2026-04-23 07:19 | -36.14807 | 174.44907 | 17168 ft | 271 kts | 342° |
| 2026-04-23 07:19 | -36.13005 | 174.44384 | 16799 ft | 261 kts | 341° |
| 2026-04-23 07:19 | -36.11266 | 174.43844 | 16423 ft | 254 kts | 340° |
| 2026-04-23 07:19 | -36.09587 | 174.43300 | 16050 ft | 249 kts | 340° |
| 2026-04-23 07:20 | -36.07913 | 174.42746 | 15670 ft | 245 kts | 340° |
| 2026-04-23 07:20 | -36.06280 | 174.42202 | 15294 ft | 242 kts | 340° |
| 2026-04-23 07:20 | -36.04665 | 174.41665 | 14918 ft | 239 kts | 340° |
| 2026-04-23 07:20 | -36.03088 | 174.41142 | 14548 ft | 237 kts | 340° |
| 2026-04-23 07:21 | -36.01502 | 174.40619 | 14172 ft | 235 kts | 340° |
| 2026-04-23 07:21 | -35.99926 | 174.40101 | 13797 ft | 234 kts | 340° |
| 2026-04-23 07:21 | -35.98404 | 174.39466 | 13416 ft | 227 kts | 325° |
| 2026-04-23 07:21 | -35.97355 | 174.38109 | 13040 ft | 217 kts | 294° |
| 2026-04-23 07:22 | -35.97086 | 174.36330 | 12673 ft | 214 kts | 268° |
| 2026-04-23 07:22 | -35.97265 | 174.34496 | 12298 ft | 213 kts | 261° |
| 2026-04-23 07:22 | -35.97460 | 174.33282 | 12044 ft | 213 kts | 259° |
| 2026-04-23 07:22 | -35.97780 | 174.31497 | 11669 ft | 213 kts | 258° |
| 2026-04-23 07:23 | -35.98112 | 174.29718 | 11294 ft | 212 kts | 258° |
| 2026-04-23 07:23 | -35.98444 | 174.27945 | 10919 ft | 212 kts | 258° |
| 2026-04-23 07:23 | -35.98775 | 174.26175 | 10544 ft | 211 kts | 258° |
| 2026-04-23 07:23 | -35.99105 | 174.24408 | 10169 ft | 211 kts | 258° |
| 2026-04-23 07:24 | -35.99432 | 174.22643 | 9793 ft | 211 kts | 258° |
| 2026-04-23 07:24 | -35.99757 | 174.20883 | 9418 ft | 210 kts | 258° |
| 2026-04-23 07:24 | -36.00076 | 174.19148 | 9047 ft | 209 kts | 258° |
| 2026-04-23 07:24 | -36.00397 | 174.17396 | 8672 ft | 209 kts | 258° |
| 2026-04-23 07:25 | -36.00715 | 174.15647 | 8297 ft | 208 kts | 258° |
| 2026-04-23 07:25 | -36.01031 | 174.13904 | 7922 ft | 208 kts | 258° |
| 2026-04-23 07:25 | -36.01346 | 174.12162 | 7546 ft | 207 kts | 258° |
| 2026-04-23 07:25 | -36.01657 | 174.10428 | 7171 ft | 207 kts | 258° |
| 2026-04-23 07:26 | -36.01966 | 174.08696 | 6796 ft | 206 kts | 258° |
| 2026-04-23 07:26 | -36.02273 | 174.06969 | 6421 ft | 206 kts | 258° |
| 2026-04-23 07:26 | -36.02312 | 174.05221 | 6038 ft | 207 kts | 282° |
| 2026-04-23 07:26 | -36.01524 | 174.03723 | 5662 ft | 216 kts | 316° |
| 2026-04-23 07:27 | -36.00124 | 174.03013 | 5287 ft | 226 kts | 351° |
| 2026-04-23 07:27 | -35.98583 | 174.03378 | 4912 ft | 231 kts | 27° |
| 2026-04-23 07:27 | -35.97378 | 174.04660 | 4547 ft | 230 kts | 51° |
| 2026-04-23 07:27 | -35.96415 | 174.06228 | 4173 ft | 229 kts | 54° |
| 2026-04-23 07:28 | -35.95393 | 174.07733 | 3806 ft | 228 kts | 50° |
| 2026-04-23 07:28 | -35.94356 | 174.09145 | 3666 ft | 216 kts | 49° |
| 2026-04-23 07:28 | -35.93364 | 174.10470 | 3603 ft | 204 kts | 49° |
| 2026-04-23 07:28 | -35.92438 | 174.11698 | 3588 ft | 193 kts | 49° |
| 2026-04-23 07:29 | -35.91549 | 174.12874 | 3584 ft | 183 kts | 49° |
| 2026-04-23 07:29 | -35.90699 | 174.13996 | 3584 ft | 175 kts | 49° |
| 2026-04-23 07:29 | -35.89883 | 174.15070 | 3585 ft | 168 kts | 49° |
| 2026-04-23 07:29 | -35.89094 | 174.16108 | 3585 ft | 163 kts | 49° |
| 2026-04-23 07:30 | -35.88325 | 174.17119 | 3586 ft | 160 kts | 49° |
| 2026-04-23 07:30 | -35.87575 | 174.18105 | 3586 ft | 156 kts | 49° |
| 2026-04-23 07:30 | -35.86697 | 174.18862 | 3578 ft | 157 kts | 16° |
| 2026-04-23 07:30 | -35.85602 | 174.19027 | 3453 ft | 164 kts | 4° |
| 2026-04-23 07:31 | -35.84419 | 174.19066 | 3217 ft | 176 kts | 2° |
| 2026-04-23 07:31 | -35.83167 | 174.19088 | 2973 ft | 184 kts | 1° |
| 2026-04-23 07:31 | -35.81866 | 174.19110 | 2727 ft | 189 kts | 1° |
| 2026-04-23 07:31 | -35.80541 | 174.19133 | 2537 ft | 190 kts | 2° |
| 2026-04-23 07:32 | -35.79227 | 174.19160 | 2428 ft | 187 kts | 3° |
| 2026-04-23 07:32 | -35.78049 | 174.19642 | 2388 ft | 176 kts | 41° |
| 2026-04-23 07:32 | -35.77470 | 174.20869 | 2392 ft | 163 kts | 81° |
| 2026-04-23 07:32 | -35.77371 | 174.22231 | 2391 ft | 157 kts | 90° |
| 2026-04-23 07:33 | -35.77354 | 174.23566 | 2390 ft | 156 kts | 92° |
| 2026-04-23 07:33 | -35.77352 | 174.24948 | 2400 ft | 168 kts | 92° |
| 2026-04-23 07:33 | -35.77365 | 174.26434 | 2221 ft | 175 kts | 96° |
| 2026-04-23 07:33 | -35.77501 | 174.27838 | 1850 ft | 155 kts | 98° |
| 2026-04-23 07:34 | -35.77591 | 174.29010 | 1683 ft | 125 kts | 96° |
| 2026-04-23 07:34 | -35.77631 | 174.29991 | 1422 ft | 106 kts | 93° |
| 2026-04-23 07:34 | -35.77545 | 174.30802 | 1240 ft | 92 kts | 85° |
| 2026-04-23 07:34 | -35.77470 | 174.31624 | 1011 ft | 99 kts | 89° |
| 2026-04-23 07:35 | -35.77415 | 174.32464 | 858 ft | 99 kts | 87° |
| 2026-04-23 07:35 | -35.77303 | 174.33304 | 710 ft | 99 kts | 83° |
| 2026-04-23 07:35 | -35.77183 | 174.34140 | 543 ft | 98 kts | 85° |
| 2026-04-23 07:35 | -35.77087 | 174.34942 | 323 ft | 93 kts | 86° |
| 2026-04-23 07:36 | -35.76990 | 174.35748 | 178 ft | 99 kts | 84° |
| 2026-04-23 07:36 | -35.76893 | 174.36527 | 138 ft | 69 kts | 79° |
| 2026-04-23 07:36 | -35.76867 | 174.36759 | 138 ft | 4 kts | 81° |
| 2026-04-23 07:36 | -35.76860 | 174.36807 | 138 ft | 10 kts | 80° |
| 2026-04-23 07:37 | -35.76843 | 174.36919 | 138 ft | 11 kts | 65° |
| 2026-04-23 07:37 | -35.76835 | 174.36954 | 138 ft | 5 kts | 170° |
| 2026-04-23 07:37 | -35.76850 | 174.36879 | 138 ft | 17 kts | 264° |
| 2026-04-23 07:37 | -35.76865 | 174.36744 | 138 ft | 8 kts | 265° |
| 2026-04-23 07:38 | -35.76868 | 174.36713 | 138 ft | 1 kts | 262° |
| 2026-04-23 07:38 | -35.76872 | 174.36677 | 138 ft | 9 kts | 262° |
| 2026-04-23 07:38 | -35.76884 | 174.36581 | 138 ft | 8 kts | 261° |
| 2026-04-23 07:38 | -35.76886 | 174.36509 | 138 ft | 9 kts | 310° |
| 2026-04-23 07:39 | -35.76839 | 174.36492 | 138 ft | 7 kts | 353° |
| 2026-04-23 07:39 | -35.76800 | 174.36477 | 138 ft | 5 kts | 321° |
| 2026-04-23 07:39 | -35.76773 | 174.36472 | 138 ft | 5 kts | 69° |
| 2026-04-23 07:39 | -35.76772 | 174.36476 | 138 ft | 0 kts | 82° |